sensor_id;sensor_type;location;lat;lon;timestamp;P1;durP1;ratioP1;P2;durP2;ratioP2
8622;SDS011;4349;47.552;8.904;2022-07-29T00:00:02;3.57;;;3.47;;
8622;SDS011;4349;47.552;8.904;2022-07-29T00:02:30;3.47;;;3.20;;
8622;SDS011;4349;47.552;8.904;2022-07-29T00:04:58;3.60;;;3.40;;
8622;SDS011;4349;47.552;8.904;2022-07-29T00:07:25;3.13;;;3.03;;
8622;SDS011;4349;47.552;8.904;2022-07-29T00:09:53;3.50;;;3.30;;
8622;SDS011;4349;47.552;8.904;2022-07-29T00:12:21;3.40;;;3.20;;
8622;SDS011;4349;47.552;8.904;2022-07-29T00:14:53;3.33;;;3.23;;
8622;SDS011;4349;47.552;8.904;2022-07-29T00:17:21;3.30;;;3.20;;
8622;SDS011;4349;47.552;8.904;2022-07-29T00:19:49;3.67;;;3.53;;
8622;SDS011;4349;47.552;8.904;2022-07-29T00:22:17;3.37;;;3.27;;
8622;SDS011;4349;47.552;8.904;2022-07-29T00:24:45;3.37;;;3.27;;
8622;SDS011;4349;47.552;8.904;2022-07-29T00:27:14;3.60;;;3.40;;
8622;SDS011;4349;47.552;8.904;2022-07-29T00:29:41;3.30;;;3.10;;
8622;SDS011;4349;47.552;8.904;2022-07-29T00:32:10;3.37;;;3.20;;
8622;SDS011;4349;47.552;8.904;2022-07-29T00:34:38;3.23;;;3.13;;
8622;SDS011;4349;47.552;8.904;2022-07-29T00:37:22;3.10;;;3.00;;
8622;SDS011;4349;47.552;8.904;2022-07-29T00:39:50;3.30;;;3.10;;
8622;SDS011;4349;47.552;8.904;2022-07-29T00:42:18;3.50;;;3.30;;
8622;SDS011;4349;47.552;8.904;2022-07-29T00:44:46;3.43;;;3.20;;
8622;SDS011;4349;47.552;8.904;2022-07-29T00:47:15;3.37;;;3.27;;
8622;SDS011;4349;47.552;8.904;2022-07-29T00:49:42;3.43;;;3.23;;
8622;SDS011;4349;47.552;8.904;2022-07-29T00:52:10;3.30;;;3.20;;
8622;SDS011;4349;47.552;8.904;2022-07-29T00:54:42;3.23;;;3.13;;
8622;SDS011;4349;47.552;8.904;2022-07-29T00:57:10;3.40;;;3.20;;
8622;SDS011;4349;47.552;8.904;2022-07-29T00:59:39;3.33;;;3.23;;
8622;SDS011;4349;47.552;8.904;2022-07-29T01:02:06;3.17;;;3.07;;
8622;SDS011;4349;47.552;8.904;2022-07-29T01:04:35;3.33;;;3.07;;
8622;SDS011;4349;47.552;8.904;2022-07-29T01:07:03;3.23;;;3.13;;
8622;SDS011;4349;47.552;8.904;2022-07-29T01:09:31;3.50;;;3.40;;
8622;SDS011;4349;47.552;8.904;2022-07-29T01:12:12;3.20;;;3.00;;
8622;SDS011;4349;47.552;8.904;2022-07-29T01:14:40;2.80;;;2.70;;
8622;SDS011;4349;47.552;8.904;2022-07-29T01:17:10;3.00;;;2.90;;
8622;SDS011;4349;47.552;8.904;2022-07-29T01:19:47;3.23;;;3.13;;
8622;SDS011;4349;47.552;8.904;2022-07-29T01:22:21;3.43;;;3.13;;
8622;SDS011;4349;47.552;8.904;2022-07-29T01:24:57;3.40;;;3.20;;
8622;SDS011;4349;47.552;8.904;2022-07-29T01:27:35;3.50;;;3.20;;
8622;SDS011;4349;47.552;8.904;2022-07-29T01:30:09;3.00;;;2.90;;
8622;SDS011;4349;47.552;8.904;2022-07-29T01:32:40;2.93;;;2.83;;
8622;SDS011;4349;47.552;8.904;2022-07-29T01:35:09;3.10;;;2.80;;
8622;SDS011;4349;47.552;8.904;2022-07-29T01:37:45;3.03;;;2.93;;
8622;SDS011;4349;47.552;8.904;2022-07-29T01:40:17;3.07;;;2.87;;
8622;SDS011;4349;47.552;8.904;2022-07-29T01:42:48;3.30;;;3.20;;
8622;SDS011;4349;47.552;8.904;2022-07-29T01:45:19;3.17;;;3.03;;
8622;SDS011;4349;47.552;8.904;2022-07-29T01:47:50;2.90;;;2.80;;
8622;SDS011;4349;47.552;8.904;2022-07-29T01:50:20;3.23;;;3.03;;
8622;SDS011;4349;47.552;8.904;2022-07-29T01:52:52;3.17;;;2.97;;
8622;SDS011;4349;47.552;8.904;2022-07-29T01:55:22;3.60;;;3.43;;
8622;SDS011;4349;47.552;8.904;2022-07-29T01:57:50;3.00;;;2.90;;
8622;SDS011;4349;47.552;8.904;2022-07-29T02:00:19;3.00;;;2.90;;
8622;SDS011;4349;47.552;8.904;2022-07-29T02:02:47;2.90;;;2.80;;
8622;SDS011;4349;47.552;8.904;2022-07-29T02:05:17;3.23;;;3.03;;
8622;SDS011;4349;47.552;8.904;2022-07-29T02:07:46;3.20;;;3.10;;
8622;SDS011;4349;47.552;8.904;2022-07-29T02:10:14;3.17;;;3.00;;
8622;SDS011;4349;47.552;8.904;2022-07-29T02:12:43;3.10;;;3.00;;
8622;SDS011;4349;47.552;8.904;2022-07-29T02:15:16;3.00;;;2.90;;
8622;SDS011;4349;47.552;8.904;2022-07-29T02:17:46;3.47;;;3.23;;
8622;SDS011;4349;47.552;8.904;2022-07-29T02:20:15;3.20;;;3.00;;
8622;SDS011;4349;47.552;8.904;2022-07-29T02:22:43;3.27;;;3.17;;
8622;SDS011;4349;47.552;8.904;2022-07-29T02:25:11;3.53;;;3.40;;
8622;SDS011;4349;47.552;8.904;2022-07-29T02:27:39;3.43;;;3.20;;
8622;SDS011;4349;47.552;8.904;2022-07-29T02:30:08;3.30;;;3.10;;
8622;SDS011;4349;47.552;8.904;2022-07-29T02:32:37;3.60;;;3.40;;
8622;SDS011;4349;47.552;8.904;2022-07-29T02:35:09;3.03;;;2.93;;
8622;SDS011;4349;47.552;8.904;2022-07-29T02:37:37;3.07;;;2.97;;
8622;SDS011;4349;47.552;8.904;2022-07-29T02:40:06;2.73;;;2.63;;
8622;SDS011;4349;47.552;8.904;2022-07-29T02:42:35;2.70;;;2.60;;
8622;SDS011;4349;47.552;8.904;2022-07-29T02:45:06;3.13;;;2.83;;
8622;SDS011;4349;47.552;8.904;2022-07-29T02:47:34;2.70;;;2.60;;
8622;SDS011;4349;47.552;8.904;2022-07-29T02:50:10;2.50;;;2.40;;
8622;SDS011;4349;47.552;8.904;2022-07-29T02:52:39;2.80;;;2.70;;
8622;SDS011;4349;47.552;8.904;2022-07-29T02:55:11;2.67;;;2.47;;
8622;SDS011;4349;47.552;8.904;2022-07-29T02:57:41;2.70;;;2.60;;
8622;SDS011;4349;47.552;8.904;2022-07-29T03:00:21;2.43;;;2.33;;
8622;SDS011;4349;47.552;8.904;2022-07-29T03:02:50;2.67;;;2.57;;
8622;SDS011;4349;47.552;8.904;2022-07-29T03:05:21;2.80;;;2.70;;
8622;SDS011;4349;47.552;8.904;2022-07-29T03:07:51;2.73;;;2.60;;
8622;SDS011;4349;47.552;8.904;2022-07-29T03:10:20;3.00;;;2.90;;
8622;SDS011;4349;47.552;8.904;2022-07-29T03:12:48;3.00;;;2.90;;
8622;SDS011;4349;47.552;8.904;2022-07-29T03:15:15;2.80;;;2.70;;
8622;SDS011;4349;47.552;8.904;2022-07-29T03:17:43;2.60;;;2.50;;
8622;SDS011;4349;47.552;8.904;2022-07-29T03:20:11;2.60;;;2.40;;
8622;SDS011;4349;47.552;8.904;2022-07-29T03:22:41;2.17;;;2.17;;
8622;SDS011;4349;47.552;8.904;2022-07-29T03:25:10;2.20;;;2.20;;
8622;SDS011;4349;47.552;8.904;2022-07-29T03:27:38;2.57;;;2.40;;
8622;SDS011;4349;47.552;8.904;2022-07-29T03:30:06;2.40;;;2.30;;
8622;SDS011;4349;47.552;8.904;2022-07-29T03:32:34;2.60;;;2.50;;
8622;SDS011;4349;47.552;8.904;2022-07-29T03:35:02;2.50;;;2.40;;
8622;SDS011;4349;47.552;8.904;2022-07-29T03:37:30;2.50;;;2.40;;
8622;SDS011;4349;47.552;8.904;2022-07-29T03:40:02;5.00;;;2.50;;
8622;SDS011;4349;47.552;8.904;2022-07-29T03:42:31;2.67;;;2.50;;
8622;SDS011;4349;47.552;8.904;2022-07-29T03:45:00;2.00;;;2.00;;
8622;SDS011;4349;47.552;8.904;2022-07-29T03:47:29;2.73;;;2.30;;
8622;SDS011;4349;47.552;8.904;2022-07-29T03:50:15;2.40;;;2.30;;
8622;SDS011;4349;47.552;8.904;2022-07-29T03:52:45;3.17;;;2.97;;
8622;SDS011;4349;47.552;8.904;2022-07-29T03:55:14;2.40;;;2.40;;
8622;SDS011;4349;47.552;8.904;2022-07-29T03:57:42;2.70;;;2.60;;
8622;SDS011;4349;47.552;8.904;2022-07-29T04:00:10;2.73;;;2.53;;
8622;SDS011;4349;47.552;8.904;2022-07-29T04:02:38;3.33;;;3.13;;
8622;SDS011;4349;47.552;8.904;2022-07-29T04:05:11;3.10;;;2.97;;
8622;SDS011;4349;47.552;8.904;2022-07-29T04:07:39;3.20;;;3.10;;
8622;SDS011;4349;47.552;8.904;2022-07-29T04:10:07;5.37;;;3.27;;
8622;SDS011;4349;47.552;8.904;2022-07-29T04:12:36;3.47;;;3.33;;
8622;SDS011;4349;47.552;8.904;2022-07-29T04:15:04;3.73;;;3.53;;
8622;SDS011;4349;47.552;8.904;2022-07-29T04:17:32;3.40;;;3.30;;
8622;SDS011;4349;47.552;8.904;2022-07-29T04:19:59;4.03;;;3.83;;
8622;SDS011;4349;47.552;8.904;2022-07-29T04:22:27;3.73;;;3.53;;
8622;SDS011;4349;47.552;8.904;2022-07-29T04:24:54;3.40;;;3.30;;
8622;SDS011;4349;47.552;8.904;2022-07-29T04:27:28;3.87;;;3.57;;
8622;SDS011;4349;47.552;8.904;2022-07-29T04:29:57;3.60;;;3.40;;
8622;SDS011;4349;47.552;8.904;2022-07-29T04:32:25;3.43;;;3.23;;
8622;SDS011;4349;47.552;8.904;2022-07-29T04:34:53;3.70;;;3.60;;
8622;SDS011;4349;47.552;8.904;2022-07-29T04:37:21;3.43;;;3.33;;
8622;SDS011;4349;47.552;8.904;2022-07-29T04:39:48;3.50;;;3.30;;
8622;SDS011;4349;47.552;8.904;2022-07-29T04:42:16;3.50;;;3.30;;
8622;SDS011;4349;47.552;8.904;2022-07-29T04:44:52;3.17;;;2.97;;
8622;SDS011;4349;47.552;8.904;2022-07-29T04:47:21;3.40;;;3.17;;
8622;SDS011;4349;47.552;8.904;2022-07-29T04:49:49;3.13;;;3.03;;
8622;SDS011;4349;47.552;8.904;2022-07-29T04:52:17;3.37;;;3.17;;
8622;SDS011;4349;47.552;8.904;2022-07-29T04:54:44;3.70;;;3.50;;
8622;SDS011;4349;47.552;8.904;2022-07-29T04:57:12;3.63;;;3.43;;
8622;SDS011;4349;47.552;8.904;2022-07-29T04:59:39;3.10;;;3.00;;
8622;SDS011;4349;47.552;8.904;2022-07-29T05:02:07;2.90;;;2.80;;
8622;SDS011;4349;47.552;8.904;2022-07-29T05:04:36;3.67;;;3.47;;
8622;SDS011;4349;47.552;8.904;2022-07-29T05:07:04;3.03;;;2.93;;
8622;SDS011;4349;47.552;8.904;2022-07-29T05:09:31;3.30;;;3.20;;
8622;SDS011;4349;47.552;8.904;2022-07-29T05:11:59;3.30;;;3.10;;
8622;SDS011;4349;47.552;8.904;2022-07-29T05:14:26;3.33;;;3.23;;
8622;SDS011;4349;47.552;8.904;2022-07-29T05:16:54;3.47;;;3.17;;
8622;SDS011;4349;47.552;8.904;2022-07-29T05:19:23;3.20;;;3.10;;
8622;SDS011;4349;47.552;8.904;2022-07-29T05:21:52;3.30;;;3.20;;
8622;SDS011;4349;47.552;8.904;2022-07-29T05:24:19;5.53;;;5.23;;
8622;SDS011;4349;47.552;8.904;2022-07-29T05:26:47;6.77;;;5.27;;
8622;SDS011;4349;47.552;8.904;2022-07-29T05:29:15;5.97;;;5.10;;
8622;SDS011;4349;47.552;8.904;2022-07-29T05:32:02;4.10;;;3.90;;
8622;SDS011;4349;47.552;8.904;2022-07-29T05:34:30;7.17;;;3.87;;
8622;SDS011;4349;47.552;8.904;2022-07-29T05:36:59;4.30;;;4.10;;
8622;SDS011;4349;47.552;8.904;2022-07-29T05:39:27;3.73;;;3.63;;
8622;SDS011;4349;47.552;8.904;2022-07-29T05:42:14;7.17;;;4.30;;
8622;SDS011;4349;47.552;8.904;2022-07-29T05:44:42;4.70;;;4.40;;
8622;SDS011;4349;47.552;8.904;2022-07-29T05:47:09;4.57;;;4.30;;
8622;SDS011;4349;47.552;8.904;2022-07-29T05:49:37;3.90;;;3.60;;
8622;SDS011;4349;47.552;8.904;2022-07-29T05:52:06;4.27;;;4.07;;
8622;SDS011;4349;47.552;8.904;2022-07-29T05:54:34;5.30;;;4.70;;
8622;SDS011;4349;47.552;8.904;2022-07-29T05:57:01;4.07;;;3.87;;
8622;SDS011;4349;47.552;8.904;2022-07-29T05:59:29;5.00;;;4.60;;
8622;SDS011;4349;47.552;8.904;2022-07-29T06:01:57;4.20;;;3.90;;
8622;SDS011;4349;47.552;8.904;2022-07-29T06:04:24;4.27;;;3.87;;
8622;SDS011;4349;47.552;8.904;2022-07-29T06:06:52;4.30;;;4.10;;
8622;SDS011;4349;47.552;8.904;2022-07-29T06:09:21;3.83;;;3.53;;
8622;SDS011;4349;47.552;8.904;2022-07-29T06:11:49;3.60;;;3.50;;
8622;SDS011;4349;47.552;8.904;2022-07-29T06:14:16;4.13;;;3.87;;
8622;SDS011;4349;47.552;8.904;2022-07-29T06:16:45;4.10;;;3.90;;
8622;SDS011;4349;47.552;8.904;2022-07-29T06:19:12;3.90;;;3.70;;
8622;SDS011;4349;47.552;8.904;2022-07-29T06:21:41;4.40;;;4.20;;
8622;SDS011;4349;47.552;8.904;2022-07-29T06:24:10;3.73;;;3.60;;
8622;SDS011;4349;47.552;8.904;2022-07-29T06:26:40;5.00;;;3.90;;
8622;SDS011;4349;47.552;8.904;2022-07-29T06:29:08;4.03;;;3.83;;
8622;SDS011;4349;47.552;8.904;2022-07-29T06:31:36;4.37;;;4.07;;
8622;SDS011;4349;47.552;8.904;2022-07-29T06:34:04;4.27;;;3.97;;
8622;SDS011;4349;47.552;8.904;2022-07-29T06:36:33;3.87;;;3.67;;
8622;SDS011;4349;47.552;8.904;2022-07-29T06:39:03;3.90;;;3.57;;
8622;SDS011;4349;47.552;8.904;2022-07-29T06:41:31;3.70;;;3.60;;
8622;SDS011;4349;47.552;8.904;2022-07-29T06:44:09;3.80;;;3.50;;
8622;SDS011;4349;47.552;8.904;2022-07-29T06:46:36;3.80;;;3.60;;
8622;SDS011;4349;47.552;8.904;2022-07-29T06:49:04;3.70;;;3.50;;
8622;SDS011;4349;47.552;8.904;2022-07-29T06:51:32;3.80;;;3.60;;
8622;SDS011;4349;47.552;8.904;2022-07-29T06:53:59;4.63;;;4.33;;
8622;SDS011;4349;47.552;8.904;2022-07-29T06:56:29;3.80;;;3.60;;
8622;SDS011;4349;47.552;8.904;2022-07-29T06:59:04;3.43;;;3.23;;
8622;SDS011;4349;47.552;8.904;2022-07-29T07:01:33;4.10;;;3.70;;
8622;SDS011;4349;47.552;8.904;2022-07-29T07:04:01;4.00;;;3.80;;
8622;SDS011;4349;47.552;8.904;2022-07-29T07:06:28;4.47;;;4.07;;
8622;SDS011;4349;47.552;8.904;2022-07-29T07:08:56;4.43;;;4.00;;
8622;SDS011;4349;47.552;8.904;2022-07-29T07:11:24;3.90;;;3.57;;
8622;SDS011;4349;47.552;8.904;2022-07-29T07:13:51;3.33;;;3.13;;
8622;SDS011;4349;47.552;8.904;2022-07-29T07:16:22;3.10;;;3.00;;
8622;SDS011;4349;47.552;8.904;2022-07-29T07:18:51;3.63;;;3.43;;
8622;SDS011;4349;47.552;8.904;2022-07-29T07:21:18;3.27;;;3.17;;
8622;SDS011;4349;47.552;8.904;2022-07-29T07:23:46;3.80;;;3.60;;
8622;SDS011;4349;47.552;8.904;2022-07-29T07:26:14;3.90;;;3.70;;
8622;SDS011;4349;47.552;8.904;2022-07-29T07:28:42;3.50;;;3.30;;
8622;SDS011;4349;47.552;8.904;2022-07-29T07:31:09;3.60;;;3.30;;
8622;SDS011;4349;47.552;8.904;2022-07-29T07:33:37;3.50;;;3.30;;
8622;SDS011;4349;47.552;8.904;2022-07-29T07:36:06;3.33;;;3.20;;
8622;SDS011;4349;47.552;8.904;2022-07-29T07:38:34;3.77;;;3.43;;
8622;SDS011;4349;47.552;8.904;2022-07-29T07:41:01;3.73;;;3.50;;
8622;SDS011;4349;47.552;8.904;2022-07-29T07:43:29;4.30;;;3.47;;
8622;SDS011;4349;47.552;8.904;2022-07-29T07:45:57;3.00;;;2.80;;
8622;SDS011;4349;47.552;8.904;2022-07-29T07:48:24;2.80;;;2.70;;
8622;SDS011;4349;47.552;8.904;2022-07-29T07:50:52;3.20;;;3.10;;
8622;SDS011;4349;47.552;8.904;2022-07-29T07:53:22;3.60;;;3.30;;
8622;SDS011;4349;47.552;8.904;2022-07-29T07:55:49;2.97;;;2.87;;
8622;SDS011;4349;47.552;8.904;2022-07-29T07:58:37;3.03;;;2.93;;
8622;SDS011;4349;47.552;8.904;2022-07-29T08:01:05;3.47;;;3.17;;
8622;SDS011;4349;47.552;8.904;2022-07-29T08:03:33;3.57;;;3.37;;
8622;SDS011;4349;47.552;8.904;2022-07-29T08:06:01;3.10;;;3.00;;
8622;SDS011;4349;47.552;8.904;2022-07-29T08:08:30;3.33;;;3.07;;
8622;SDS011;4349;47.552;8.904;2022-07-29T08:10:57;2.93;;;2.83;;
8622;SDS011;4349;47.552;8.904;2022-07-29T08:13:34;3.00;;;2.80;;
8622;SDS011;4349;47.552;8.904;2022-07-29T08:16:01;5.00;;;3.77;;
8622;SDS011;4349;47.552;8.904;2022-07-29T08:18:38;3.20;;;3.00;;
8622;SDS011;4349;47.552;8.904;2022-07-29T08:21:06;3.10;;;2.90;;
8622;SDS011;4349;47.552;8.904;2022-07-29T08:23:35;3.03;;;2.80;;
8622;SDS011;4349;47.552;8.904;2022-07-29T08:26:14;2.90;;;2.80;;
8622;SDS011;4349;47.552;8.904;2022-07-29T08:28:42;3.17;;;3.07;;
8622;SDS011;4349;47.552;8.904;2022-07-29T08:31:12;3.37;;;3.17;;
8622;SDS011;4349;47.552;8.904;2022-07-29T08:33:40;3.30;;;3.20;;
8622;SDS011;4349;47.552;8.904;2022-07-29T08:36:07;3.83;;;3.63;;
8622;SDS011;4349;47.552;8.904;2022-07-29T08:38:37;4.00;;;3.73;;
8622;SDS011;4349;47.552;8.904;2022-07-29T08:41:04;3.17;;;3.07;;
8622;SDS011;4349;47.552;8.904;2022-07-29T08:43:32;3.83;;;3.63;;
8622;SDS011;4349;47.552;8.904;2022-07-29T08:46:03;4.13;;;3.93;;
8622;SDS011;4349;47.552;8.904;2022-07-29T08:48:31;3.97;;;3.67;;
8622;SDS011;4349;47.552;8.904;2022-07-29T08:50:59;4.33;;;3.80;;
8622;SDS011;4349;47.552;8.904;2022-07-29T08:53:29;3.87;;;3.57;;
8622;SDS011;4349;47.552;8.904;2022-07-29T08:55:58;3.57;;;3.30;;
8622;SDS011;4349;47.552;8.904;2022-07-29T08:58:26;4.20;;;3.90;;
8622;SDS011;4349;47.552;8.904;2022-07-29T09:01:02;3.83;;;3.63;;
8622;SDS011;4349;47.552;8.904;2022-07-29T09:03:33;3.23;;;3.10;;
8622;SDS011;4349;47.552;8.904;2022-07-29T09:06:01;4.33;;;3.50;;
8622;SDS011;4349;47.552;8.904;2022-07-29T09:08:30;3.83;;;3.67;;
8622;SDS011;4349;47.552;8.904;2022-07-29T09:11:00;4.03;;;3.73;;
8622;SDS011;4349;47.552;8.904;2022-07-29T09:13:30;3.47;;;3.30;;
8622;SDS011;4349;47.552;8.904;2022-07-29T09:15:58;4.30;;;3.90;;
8622;SDS011;4349;47.552;8.904;2022-07-29T09:18:32;3.87;;;3.57;;
8622;SDS011;4349;47.552;8.904;2022-07-29T09:21:00;5.93;;;3.80;;
8622;SDS011;4349;47.552;8.904;2022-07-29T09:23:58;3.93;;;3.63;;
8622;SDS011;4349;47.552;8.904;2022-07-29T09:26:29;3.57;;;3.37;;
8622;SDS011;4349;47.552;8.904;2022-07-29T09:28:57;3.67;;;3.50;;
8622;SDS011;4349;47.552;8.904;2022-07-29T09:31:31;3.37;;;3.17;;
8622;SDS011;4349;47.552;8.904;2022-07-29T09:33:59;3.27;;;3.00;;
8622;SDS011;4349;47.552;8.904;2022-07-29T09:36:27;3.50;;;3.30;;
8622;SDS011;4349;47.552;8.904;2022-07-29T09:38:58;2.93;;;2.83;;
8622;SDS011;4349;47.552;8.904;2022-07-29T09:41:26;3.20;;;3.00;;
8622;SDS011;4349;47.552;8.904;2022-07-29T09:43:56;3.17;;;2.87;;
8622;SDS011;4349;47.552;8.904;2022-07-29T09:46:25;2.67;;;2.57;;
8622;SDS011;4349;47.552;8.904;2022-07-29T09:49:05;2.50;;;2.40;;
8622;SDS011;4349;47.552;8.904;2022-07-29T09:51:34;2.70;;;2.60;;
8622;SDS011;4349;47.552;8.904;2022-07-29T09:54:20;3.03;;;2.93;;
8622;SDS011;4349;47.552;8.904;2022-07-29T09:56:48;2.75;;;2.65;;
8622;SDS011;4349;47.552;8.904;2022-07-29T09:59:17;2.97;;;2.80;;
8622;SDS011;4349;47.552;8.904;2022-07-29T10:01:46;2.67;;;2.57;;
8622;SDS011;4349;47.552;8.904;2022-07-29T10:04:15;2.67;;;2.57;;
8622;SDS011;4349;47.552;8.904;2022-07-29T10:06:56;3.00;;;2.90;;
8622;SDS011;4349;47.552;8.904;2022-07-29T10:09:30;2.70;;;2.60;;
8622;SDS011;4349;47.552;8.904;2022-07-29T10:12:08;2.77;;;2.67;;
8622;SDS011;4349;47.552;8.904;2022-07-29T10:14:38;2.90;;;2.80;;
8622;SDS011;4349;47.552;8.904;2022-07-29T10:17:06;2.90;;;2.70;;
8622;SDS011;4349;47.552;8.904;2022-07-29T10:19:35;3.00;;;2.90;;
8622;SDS011;4349;47.552;8.904;2022-07-29T10:22:06;2.78;;;2.67;;
8622;SDS011;4349;47.552;8.904;2022-07-29T10:24:34;3.30;;;3.10;;
8622;SDS011;4349;47.552;8.904;2022-07-29T10:27:02;2.80;;;2.70;;
8622;SDS011;4349;47.552;8.904;2022-07-29T10:29:30;2.70;;;2.60;;
8622;SDS011;4349;47.552;8.904;2022-07-29T10:32:19;2.90;;;2.70;;
8622;SDS011;4349;47.552;8.904;2022-07-29T10:35:08;2.70;;;2.60;;
8622;SDS011;4349;47.552;8.904;2022-07-29T10:37:45;2.85;;;2.75;;
8622;SDS011;4349;47.552;8.904;2022-07-29T10:40:16;2.80;;;2.70;;
8622;SDS011;4349;47.552;8.904;2022-07-29T10:43:07;2.60;;;2.50;;
8622;SDS011;4349;47.552;8.904;2022-07-29T10:45:42;2.80;;;2.70;;
8622;SDS011;4349;47.552;8.904;2022-07-29T10:48:11;3.10;;;3.00;;
8622;SDS011;4349;47.552;8.904;2022-07-29T10:50:52;2.78;;;2.67;;
8622;SDS011;4349;47.552;8.904;2022-07-29T10:53:22;2.80;;;2.70;;
8622;SDS011;4349;47.552;8.904;2022-07-29T10:55:50;2.97;;;2.88;;
8622;SDS011;4349;47.552;8.904;2022-07-29T10:58:38;2.63;;;2.40;;
8622;SDS011;4349;47.552;8.904;2022-07-29T11:01:27;2.97;;;2.78;;
8622;SDS011;4349;47.552;8.904;2022-07-29T11:04:05;2.58;;;2.55;;
8622;SDS011;4349;47.552;8.904;2022-07-29T11:09:16;2.60;;;2.50;;
8622;SDS011;4349;47.552;8.904;2022-07-29T11:11:45;2.70;;;2.60;;
8622;SDS011;4349;47.552;8.904;2022-07-29T11:17:08;3.30;;;3.10;;
8622;SDS011;4349;47.552;8.904;2022-07-29T11:19:40;2.85;;;2.58;;
8622;SDS011;4349;47.552;8.904;2022-07-29T11:22:31;3.55;;;2.67;;
8622;SDS011;4349;47.552;8.904;2022-07-29T11:25:12;2.92;;;2.72;;
8622;SDS011;4349;47.552;8.904;2022-07-29T11:27:42;2.90;;;2.80;;
8622;SDS011;4349;47.552;8.904;2022-07-29T11:30:11;3.03;;;2.83;;
8622;SDS011;4349;47.552;8.904;2022-07-29T11:32:40;2.80;;;2.70;;
8622;SDS011;4349;47.552;8.904;2022-07-29T11:35:12;2.70;;;2.60;;
8622;SDS011;4349;47.552;8.904;2022-07-29T11:37:43;2.78;;;2.67;;
8622;SDS011;4349;47.552;8.904;2022-07-29T11:40:21;2.78;;;2.65;;
8622;SDS011;4349;47.552;8.904;2022-07-29T11:42:49;2.80;;;2.70;;
8622;SDS011;4349;47.552;8.904;2022-07-29T11:45:18;2.70;;;2.60;;
8622;SDS011;4349;47.552;8.904;2022-07-29T11:48:07;2.75;;;2.65;;
8622;SDS011;4349;47.552;8.904;2022-07-29T11:50:56;2.83;;;2.70;;
8622;SDS011;4349;47.552;8.904;2022-07-29T11:53:24;2.75;;;2.65;;
8622;SDS011;4349;47.552;8.904;2022-07-29T11:55:58;2.80;;;2.65;;
8622;SDS011;4349;47.552;8.904;2022-07-29T11:58:25;2.78;;;2.67;;
8622;SDS011;4349;47.552;8.904;2022-07-29T12:00:54;2.75;;;2.58;;
8622;SDS011;4349;47.552;8.904;2022-07-29T12:03:23;2.47;;;2.38;;
8622;SDS011;4349;47.552;8.904;2022-07-29T12:06:13;2.35;;;2.35;;
8622;SDS011;4349;47.552;8.904;2022-07-29T12:08:43;2.58;;;2.47;;
8622;SDS011;4349;47.552;8.904;2022-07-29T12:11:16;2.50;;;2.40;;
8622;SDS011;4349;47.552;8.904;2022-07-29T12:13:46;2.78;;;2.67;;
8622;SDS011;4349;47.552;8.904;2022-07-29T12:16:14;2.90;;;2.80;;
8622;SDS011;4349;47.552;8.904;2022-07-29T12:18:55;2.60;;;2.50;;
8622;SDS011;4349;47.552;8.904;2022-07-29T12:21:24;2.63;;;2.53;;
8622;SDS011;4349;47.552;8.904;2022-07-29T12:23:54;2.70;;;2.60;;
8622;SDS011;4349;47.552;8.904;2022-07-29T12:26:30;2.70;;;2.60;;
8622;SDS011;4349;47.552;8.904;2022-07-29T12:29:00;2.67;;;2.58;;
8622;SDS011;4349;47.552;8.904;2022-07-29T12:31:29;2.70;;;2.50;;
8622;SDS011;4349;47.552;8.904;2022-07-29T12:34:10;2.70;;;2.50;;
8622;SDS011;4349;47.552;8.904;2022-07-29T12:36:39;3.00;;;2.90;;
8622;SDS011;4349;47.552;8.904;2022-07-29T12:39:07;2.90;;;2.80;;
8622;SDS011;4349;47.552;8.904;2022-07-29T12:41:36;2.95;;;2.85;;
8622;SDS011;4349;47.552;8.904;2022-07-29T12:44:04;2.80;;;2.70;;
8622;SDS011;4349;47.552;8.904;2022-07-29T12:46:32;3.25;;;3.05;;
8622;SDS011;4349;47.552;8.904;2022-07-29T12:49:00;2.22;;;2.22;;
8622;SDS011;4349;47.552;8.904;2022-07-29T12:51:30;2.80;;;2.70;;
8622;SDS011;4349;47.552;8.904;2022-07-29T12:54:03;2.63;;;2.53;;
8622;SDS011;4349;47.552;8.904;2022-07-29T12:56:31;2.85;;;2.75;;
8622;SDS011;4349;47.552;8.904;2022-07-29T12:59:15;2.70;;;2.60;;
8622;SDS011;4349;47.552;8.904;2022-07-29T13:01:43;3.03;;;2.83;;
8622;SDS011;4349;47.552;8.904;2022-07-29T13:04:23;2.90;;;2.80;;
8622;SDS011;4349;47.552;8.904;2022-07-29T13:06:57;3.15;;;2.95;;
8622;SDS011;4349;47.552;8.904;2022-07-29T13:09:35;2.97;;;2.88;;
8622;SDS011;4349;47.552;8.904;2022-07-29T13:12:05;2.83;;;2.60;;
8622;SDS011;4349;47.552;8.904;2022-07-29T13:14:34;3.05;;;2.85;;
8622;SDS011;4349;47.552;8.904;2022-07-29T13:17:03;2.88;;;2.72;;
8622;SDS011;4349;47.552;8.904;2022-07-29T13:19:33;2.92;;;2.83;;
8622;SDS011;4349;47.552;8.904;2022-07-29T13:22:01;3.20;;;2.70;;
8622;SDS011;4349;47.552;8.904;2022-07-29T13:24:30;3.13;;;2.92;;
8622;SDS011;4349;47.552;8.904;2022-07-29T13:26:57;3.33;;;3.13;;
8622;SDS011;4349;47.552;8.904;2022-07-29T13:29:25;3.22;;;3.03;;
8622;SDS011;4349;47.552;8.904;2022-07-29T13:31:57;2.80;;;2.70;;
8622;SDS011;4349;47.552;8.904;2022-07-29T13:34:25;3.20;;;3.10;;
8622;SDS011;4349;47.552;8.904;2022-07-29T13:36:53;3.08;;;2.88;;
8622;SDS011;4349;47.552;8.904;2022-07-29T13:39:21;2.97;;;2.88;;
8622;SDS011;4349;47.552;8.904;2022-07-29T13:41:50;2.83;;;2.70;;
8622;SDS011;4349;47.552;8.904;2022-07-29T13:44:18;3.00;;;2.90;;
8622;SDS011;4349;47.552;8.904;2022-07-29T13:46:46;3.08;;;2.97;;
8622;SDS011;4349;47.552;8.904;2022-07-29T13:49:13;3.38;;;3.17;;
8622;SDS011;4349;47.552;8.904;2022-07-29T13:51:41;3.22;;;3.08;;
8622;SDS011;4349;47.552;8.904;2022-07-29T13:54:09;3.25;;;3.13;;
8622;SDS011;4349;47.552;8.904;2022-07-29T13:56:36;3.50;;;3.30;;
8622;SDS011;4349;47.552;8.904;2022-07-29T13:59:05;3.80;;;3.55;;
8622;SDS011;4349;47.552;8.904;2022-07-29T14:01:33;4.00;;;3.80;;
8622;SDS011;4349;47.552;8.904;2022-07-29T14:04:01;4.10;;;3.90;;
8622;SDS011;4349;47.552;8.904;2022-07-29T14:06:29;4.45;;;4.15;;
8622;SDS011;4349;47.552;8.904;2022-07-29T14:08:57;3.70;;;3.60;;
8622;SDS011;4349;47.552;8.904;2022-07-29T14:11:24;4.10;;;3.80;;
8622;SDS011;4349;47.552;8.904;2022-07-29T14:13:52;3.80;;;3.50;;
8622;SDS011;4349;47.552;8.904;2022-07-29T14:16:21;3.42;;;3.22;;
8622;SDS011;4349;47.552;8.904;2022-07-29T14:18:49;2.92;;;2.72;;
8622;SDS011;4349;47.552;8.904;2022-07-29T14:21:16;2.80;;;2.60;;
8622;SDS011;4349;47.552;8.904;2022-07-29T14:23:44;2.67;;;2.57;;
8622;SDS011;4349;47.552;8.904;2022-07-29T14:26:12;2.97;;;2.77;;
8622;SDS011;4349;47.552;8.904;2022-07-29T14:28:47;3.20;;;3.00;;
8622;SDS011;4349;47.552;8.904;2022-07-29T14:31:14;3.43;;;3.23;;
8622;SDS011;4349;47.552;8.904;2022-07-29T14:33:43;3.30;;;3.00;;
8622;SDS011;4349;47.552;8.904;2022-07-29T14:36:14;3.83;;;3.63;;
8622;SDS011;4349;47.552;8.904;2022-07-29T14:38:42;3.63;;;3.53;;
8622;SDS011;4349;47.552;8.904;2022-07-29T14:41:09;4.73;;;3.93;;
8622;SDS011;4349;47.552;8.904;2022-07-29T14:43:37;3.70;;;3.60;;
8622;SDS011;4349;47.552;8.904;2022-07-29T14:46:05;4.10;;;3.80;;
8622;SDS011;4349;47.552;8.904;2022-07-29T14:48:34;4.27;;;3.97;;
8622;SDS011;4349;47.552;8.904;2022-07-29T14:51:03;4.50;;;4.20;;
8622;SDS011;4349;47.552;8.904;2022-07-29T14:53:30;3.87;;;3.77;;
8622;SDS011;4349;47.552;8.904;2022-07-29T14:55:58;4.47;;;4.17;;
8622;SDS011;4349;47.552;8.904;2022-07-29T14:58:45;4.47;;;4.20;;
8622;SDS011;4349;47.552;8.904;2022-07-29T15:01:17;4.60;;;4.27;;
8622;SDS011;4349;47.552;8.904;2022-07-29T15:03:44;5.27;;;3.90;;
8622;SDS011;4349;47.552;8.904;2022-07-29T15:06:13;4.03;;;3.80;;
8622;SDS011;4349;47.552;8.904;2022-07-29T15:08:41;4.43;;;3.63;;
8622;SDS011;4349;47.552;8.904;2022-07-29T15:11:09;4.03;;;3.83;;
8622;SDS011;4349;47.552;8.904;2022-07-29T15:13:36;3.43;;;3.23;;
8622;SDS011;4349;47.552;8.904;2022-07-29T15:16:04;4.07;;;3.87;;
8622;SDS011;4349;47.552;8.904;2022-07-29T15:18:32;3.70;;;3.40;;
8622;SDS011;4349;47.552;8.904;2022-07-29T15:20:59;3.67;;;3.47;;
8622;SDS011;4349;47.552;8.904;2022-07-29T15:23:29;3.17;;;2.97;;
8622;SDS011;4349;47.552;8.904;2022-07-29T15:25:57;3.00;;;2.90;;
8622;SDS011;4349;47.552;8.904;2022-07-29T15:28:25;3.27;;;3.17;;
8622;SDS011;4349;47.552;8.904;2022-07-29T15:30:53;3.00;;;2.80;;
8622;SDS011;4349;47.552;8.904;2022-07-29T15:33:22;2.77;;;2.67;;
8622;SDS011;4349;47.552;8.904;2022-07-29T15:35:49;3.53;;;3.23;;
8622;SDS011;4349;47.552;8.904;2022-07-29T15:38:17;2.90;;;2.80;;